createdAt,value
2022-10-02T00:00:31.832Z,18.19
2022-10-02T00:03:10.391Z,18.08
2022-10-02T00:05:44.735Z,17.95
2022-10-02T00:08:24.066Z,17.99
2022-10-02T00:11:16.410Z,17.94
2022-10-02T00:13:48.763Z,17.90
2022-10-02T00:16:38.342Z,17.92
2022-10-02T00:19:05.449Z,17.85
2022-10-02T00:21:50.120Z,17.90
2022-10-02T00:24:22.405Z,17.94
2022-10-02T00:27:28.336Z,17.90
2022-10-02T00:29:59.014Z,17.85
2022-10-02T00:32:34.333Z,18.00
2022-10-02T00:35:38.533Z,18.06
2022-10-02T00:38:37.478Z,18.02
2022-10-02T00:41:24.161Z,18.07
2022-10-02T00:44:11.274Z,17.86
2022-10-02T00:46:49.861Z,17.91
2022-10-02T00:49:48.289Z,17.71
2022-10-02T00:52:17.577Z,17.47
2022-10-02T00:55:08.669Z,17.30
2022-10-02T00:57:47.390Z,17.27
2022-10-02T01:00:21.243Z,17.31
2022-10-02T01:03:11.456Z,17.26
2022-10-02T01:05:38.579Z,17.30
2022-10-02T01:08:05.947Z,17.13
2022-10-02T01:10:33.715Z,17.09
2022-10-02T01:13:00.323Z,17.11
2022-10-02T01:15:31.874Z,17.00
2022-10-02T01:17:58.855Z,16.92
2022-10-02T01:20:34.719Z,16.90
2022-10-02T01:23:33.048Z,16.92
2022-10-02T01:26:00.018Z,16.94
2022-10-02T01:28:26.901Z,16.93
2022-10-02T01:30:59.683Z,16.93
2022-10-02T01:33:26.364Z,16.85
2022-10-02T01:35:53.029Z,16.82
2022-10-02T01:38:23.320Z,16.69
2022-10-02T01:40:49.747Z,17.06
2022-10-02T01:43:24.660Z,17.19
2022-10-02T01:45:58.994Z,17.02
2022-10-02T01:48:52.794Z,17.01
2022-10-02T01:51:37.553Z,17.03
2022-10-02T01:54:48.690Z,17.03
2022-10-02T01:57:35.209Z,17.28
2022-10-02T02:00:18.238Z,16.91
2022-10-02T02:03:12.368Z,16.72
2022-10-02T02:05:54.054Z,16.74
2022-10-02T02:08:20.436Z,16.63
2022-10-02T02:11:09.017Z,16.58
2022-10-02T02:13:38.410Z,16.52
2022-10-02T02:16:20.625Z,16.52
2022-10-02T02:19:04.356Z,16.45
2022-10-02T02:21:36.565Z,16.51
2022-10-02T02:24:10.501Z,16.46
2022-10-02T02:26:39.119Z,16.67
2022-10-02T02:29:08.611Z,16.74
2022-10-02T02:31:49.141Z,16.66
2022-10-02T02:34:22.858Z,16.60
2022-10-02T02:36:55.293Z,16.55
2022-10-02T02:39:40.199Z,16.56
2022-10-02T02:42:12.108Z,16.50
2022-10-02T02:44:51.902Z,16.73
2022-10-02T02:47:22.571Z,16.70
2022-10-02T02:50:16.265Z,16.57
2022-10-02T02:52:53.108Z,16.48
2022-10-02T02:55:28.118Z,16.41
2022-10-02T02:57:57.224Z,16.49
2022-10-02T03:00:25.096Z,16.40
2022-10-02T03:02:54.505Z,16.38
2022-10-02T03:05:22.800Z,16.33
2022-10-02T03:07:53.829Z,16.35
2022-10-02T03:10:44.430Z,16.30
2022-10-02T03:13:16.580Z,16.24
2022-10-02T03:16:03.030Z,16.28
2022-10-02T03:18:45.782Z,16.26
2022-10-02T03:21:23.878Z,16.26
2022-10-02T03:24:04.469Z,16.35
2022-10-02T03:26:41.777Z,16.33
2022-10-02T03:29:17.480Z,16.32
2022-10-02T03:31:45.064Z,16.27
2022-10-02T03:34:12.443Z,16.24
2022-10-02T03:36:39.460Z,16.21
2022-10-02T03:39:24.324Z,16.29
2022-10-02T03:41:51.991Z,16.27
2022-10-02T03:44:18.410Z,16.35
2022-10-02T03:46:45.066Z,16.38
2022-10-02T03:49:11.610Z,16.28
2022-10-02T03:51:38.059Z,16.21
2022-10-02T03:54:13.015Z,16.20
2022-10-02T03:57:03.408Z,16.19
2022-10-02T03:59:41.987Z,16.13
2022-10-02T04:02:39.259Z,16.08
2022-10-02T04:05:11.981Z,16.06
2022-10-02T04:07:42.293Z,16.46
2022-10-02T04:10:21.987Z,16.59
2022-10-02T04:12:52.289Z,16.27
2022-10-02T04:15:30.482Z,16.09
2022-10-02T04:18:10.953Z,16.03
2022-10-02T04:20:47.332Z,16.04
2022-10-02T04:23:36.640Z,16.04
2022-10-02T04:26:11.268Z,15.97
2022-10-02T04:28:42.507Z,15.98
2022-10-02T04:31:12.528Z,15.92
2022-10-02T04:33:39.369Z,15.94
2022-10-02T04:36:26.659Z,15.98
2022-10-02T04:39:02.242Z,15.92
2022-10-02T04:41:47.057Z,16.12
2022-10-02T04:44:19.662Z,15.95
2022-10-02T04:47:05.923Z,15.94
2022-10-02T04:49:47.861Z,15.86
2022-10-02T04:52:35.013Z,15.84
2022-10-02T04:55:39.109Z,15.93
2022-10-02T04:58:59.279Z,15.91
2022-10-02T05:01:48.296Z,15.78
2022-10-02T05:04:23.026Z,15.79
2022-10-02T05:07:24.670Z,15.83
2022-10-02T05:10:21.572Z,15.85
2022-10-02T05:13:10.474Z,15.79
2022-10-02T05:16:03.484Z,15.72
2022-10-02T05:18:59.884Z,15.67
2022-10-02T05:22:08.706Z,15.79
2022-10-02T05:24:46.183Z,15.74
2022-10-02T05:27:21.346Z,15.74
2022-10-02T05:30:04.842Z,15.63
2022-10-02T05:32:50.627Z,15.61
2022-10-02T05:35:35.202Z,15.77
2022-10-02T05:38:35.695Z,15.70
2022-10-02T05:41:37.079Z,15.68
2022-10-02T05:44:14.775Z,15.72
2022-10-02T05:46:58.894Z,15.70
2022-10-02T05:49:29.186Z,15.71
2022-10-02T05:52:02.372Z,15.91
2022-10-02T05:54:37.223Z,15.86
2022-10-02T05:57:18.949Z,15.82
2022-10-02T05:59:54.617Z,15.80
2022-10-02T06:02:38.194Z,15.84
2022-10-02T06:05:15.023Z,15.88
2022-10-02T06:07:45.883Z,15.94
2022-10-02T06:10:19.718Z,15.96
2022-10-02T06:12:55.672Z,15.91
2022-10-02T06:15:32.003Z,15.92
2022-10-02T06:18:05.420Z,16.03
2022-10-02T06:20:45.040Z,16.20
2022-10-02T06:23:43.616Z,16.29
2022-10-02T06:26:16.466Z,16.45
2022-10-02T06:28:51.209Z,16.79
2022-10-02T06:31:25.966Z,16.74
2022-10-02T06:33:53.059Z,16.84
2022-10-02T06:36:35.173Z,16.79
2022-10-02T06:39:17.019Z,16.77
2022-10-02T06:41:56.662Z,16.84
2022-10-02T06:45:10.886Z,16.93
2022-10-02T06:48:03.761Z,17.09
2022-10-02T06:50:42.691Z,17.10
2022-10-02T06:53:20.327Z,17.14
2022-10-02T06:56:17.755Z,17.29
2022-10-02T06:59:07.186Z,17.43
2022-10-02T07:02:09.941Z,17.69
2022-10-02T07:04:58.128Z,18.16
2022-10-02T07:07:57.851Z,18.59
2022-10-02T07:10:35.777Z,19.03
2022-10-02T07:13:17.912Z,19.25
2022-10-02T07:15:52.545Z,19.13
2022-10-02T07:18:47.164Z,19.04
2022-10-02T07:21:22.045Z,19.16
2022-10-02T07:24:13.104Z,19.29
2022-10-02T07:26:45.742Z,19.50
2022-10-02T07:29:21.118Z,19.61
2022-10-02T07:32:21.428Z,19.37
2022-10-02T07:35:06.705Z,19.27
2022-10-02T07:38:05.996Z,19.22
2022-10-02T07:40:50.834Z,19.23
2022-10-02T07:43:39.586Z,19.30
2022-10-02T07:46:27.348Z,19.29
2022-10-02T07:49:22.136Z,19.32
2022-10-02T07:52:03.509Z,19.32
2022-10-02T07:54:49.068Z,19.63
2022-10-02T07:57:27.624Z,19.92
2022-10-02T08:00:10.959Z,20.28
2022-10-02T08:02:50.128Z,20.52
2022-10-02T08:05:24.141Z,20.38
2022-10-02T08:07:55.055Z,20.54
2022-10-02T08:10:26.262Z,20.35
2022-10-02T08:13:00.561Z,20.36
2022-10-02T08:15:33.520Z,20.20
2022-10-02T08:18:30.051Z,20.14
2022-10-02T08:20:55.115Z,20.08
2022-10-02T08:23:34.115Z,20.03
2022-10-02T08:26:07.477Z,20.25
2022-10-02T08:29:01.221Z,20.39
2022-10-02T08:31:27.851Z,20.59
2022-10-02T08:33:55.496Z,20.59
2022-10-02T08:36:35.094Z,20.48
2022-10-02T08:39:20.368Z,20.49
2022-10-02T08:42:11.519Z,20.50
2022-10-02T08:45:02.308Z,20.62
2022-10-02T08:47:37.855Z,20.69
2022-10-02T08:50:38.171Z,20.52
2022-10-02T08:53:10.765Z,20.55
2022-10-02T08:55:47.306Z,20.92
2022-10-02T08:58:27.332Z,20.70
2022-10-02T09:01:10.334Z,20.73
2022-10-02T09:03:52.202Z,20.78
2022-10-02T09:06:30.863Z,20.90
2022-10-02T09:09:31.610Z,21.01
2022-10-02T09:12:13.361Z,20.94
2022-10-02T09:14:39.752Z,20.92
2022-10-02T09:17:16.005Z,21.06
2022-10-02T09:20:19.631Z,21.12
2022-10-02T09:23:23.628Z,20.99
2022-10-02T09:25:53.851Z,21.27
2022-10-02T09:28:33.122Z,21.42
2022-10-02T09:31:33.552Z,21.43
2022-10-02T09:34:34.721Z,21.49
2022-10-02T09:37:07.839Z,21.63
2022-10-02T09:39:51.491Z,21.43
2022-10-02T09:42:43.707Z,21.22
2022-10-02T09:45:22.488Z,21.07
2022-10-02T09:47:53.353Z,20.96
2022-10-02T09:50:38.282Z,20.94
2022-10-02T09:53:39.090Z,20.98
2022-10-02T09:56:11.596Z,21.24
2022-10-02T09:59:31.971Z,21.72
2022-10-02T10:02:27.717Z,21.68
2022-10-02T10:05:09.225Z,21.43
2022-10-02T10:07:53.926Z,21.61
2022-10-02T10:11:00.562Z,21.77
2022-10-02T10:13:44.967Z,21.87
2022-10-02T10:16:32.030Z,21.98
2022-10-02T10:19:23.628Z,21.92
2022-10-02T10:22:17.344Z,21.91
2022-10-02T10:25:17.241Z,22.18
2022-10-02T10:28:12.050Z,22.19
2022-10-02T10:31:10.207Z,22.34
2022-10-02T10:33:55.587Z,22.31
2022-10-02T10:36:57.375Z,22.50
2022-10-02T10:39:39.255Z,22.47
2022-10-02T10:42:05.582Z,22.29
2022-10-02T10:44:34.640Z,22.39
2022-10-02T10:47:29.246Z,22.65
2022-10-02T10:50:38.448Z,22.65
2022-10-02T10:53:17.106Z,22.82
2022-10-02T10:56:21.742Z,22.77
2022-10-02T10:59:25.365Z,22.96
2022-10-02T11:02:03.967Z,23.12
2022-10-02T11:05:07.785Z,23.55
2022-10-02T11:07:52.859Z,23.37
2022-10-02T11:10:42.788Z,23.55
2022-10-02T11:13:25.562Z,23.51
2022-10-02T11:16:00.488Z,23.51
2022-10-02T11:18:40.206Z,23.39
2022-10-02T11:21:39.702Z,23.32
2022-10-02T11:24:36.292Z,23.23
2022-10-02T11:27:34.130Z,23.22
2022-10-02T11:30:25.256Z,23.15
2022-10-02T11:33:13.172Z,23.08
2022-10-02T11:36:21.187Z,22.96
2022-10-02T11:39:26.684Z,23.14
2022-10-02T11:42:23.026Z,23.32
2022-10-02T11:44:55.232Z,23.20
2022-10-02T11:47:37.018Z,23.40
2022-10-02T11:50:41.332Z,23.29
2022-10-02T11:53:26.014Z,23.31
2022-10-02T11:55:55.377Z,23.19
2022-10-02T11:59:00.587Z,23.40
2022-10-02T12:01:43.087Z,23.17
2022-10-02T12:04:12.495Z,23.10
2022-10-02T12:07:05.055Z,23.12
2022-10-02T12:09:39.734Z,23.18
2022-10-02T12:12:38.496Z,23.15
2022-10-02T12:15:14.468Z,23.13
2022-10-02T12:17:53.394Z,23.30
2022-10-02T12:21:13.357Z,23.43
2022-10-02T12:25:02.561Z,23.43
2022-10-02T12:27:50.896Z,23.51
2022-10-02T12:30:30.580Z,23.45
2022-10-02T12:33:08.627Z,23.69
2022-10-02T12:35:47.114Z,23.63
2022-10-02T12:38:35.455Z,23.56
2022-10-02T12:41:20.800Z,23.44
2022-10-02T12:44:06.048Z,23.44
2022-10-02T12:46:59.647Z,23.40
2022-10-02T12:49:59.478Z,23.53
2022-10-02T12:52:54.002Z,23.35
2022-10-02T12:55:38.855Z,23.38
2022-10-02T12:58:24.571Z,23.60
2022-10-02T13:01:15.860Z,23.68
2022-10-02T13:04:18.441Z,23.42
2022-10-02T13:07:30.192Z,23.55
2022-10-02T13:10:05.625Z,23.80
2022-10-02T13:12:54.195Z,23.59
2022-10-02T13:15:39.092Z,23.68
2022-10-02T13:18:17.141Z,23.59
2022-10-02T13:21:11.857Z,23.69
2022-10-02T13:24:05.934Z,23.71
2022-10-02T13:26:42.483Z,23.51
2022-10-02T13:29:20.953Z,23.31
2022-10-02T13:32:09.305Z,23.31
2022-10-02T13:34:51.919Z,23.56
2022-10-02T13:37:47.212Z,23.46
2022-10-02T13:40:23.809Z,23.46
2022-10-02T13:43:21.355Z,23.14
2022-10-02T13:46:24.451Z,23.31
2022-10-02T13:48:56.929Z,23.51
2022-10-02T13:51:42.261Z,23.54
2022-10-02T13:54:22.714Z,23.67
2022-10-02T13:57:06.910Z,23.59
2022-10-02T13:59:54.844Z,23.52
2022-10-02T14:02:50.714Z,23.56
2022-10-02T14:05:43.999Z,23.56
2022-10-02T14:08:38.869Z,23.45
2022-10-02T14:11:40.412Z,23.37
2022-10-02T14:14:24.304Z,23.66
2022-10-02T14:16:53.616Z,23.79
2022-10-02T14:19:30.443Z,23.96
2022-10-02T14:22:14.214Z,23.63
2022-10-02T14:25:04.267Z,23.96
2022-10-02T14:27:46.059Z,23.67
2022-10-02T14:30:19.997Z,23.80
2022-10-02T14:33:01.743Z,23.96
2022-10-02T14:35:36.946Z,23.79
2022-10-02T14:38:13.391Z,23.83
2022-10-02T14:40:56.146Z,23.99
2022-10-02T14:43:46.588Z,23.64
2022-10-02T14:46:30.486Z,23.61
2022-10-02T14:49:06.077Z,23.67
2022-10-02T14:51:56.453Z,23.46
2022-10-02T14:54:34.100Z,23.47
2022-10-02T14:57:43.614Z,23.88
2022-10-02T15:00:17.562Z,24.09
2022-10-02T15:03:10.981Z,24.07
2022-10-02T15:06:14.787Z,24.22
2022-10-02T15:08:50.086Z,23.85
2022-10-02T15:11:25.522Z,23.81
2022-10-02T15:14:06.569Z,23.84
2022-10-02T15:17:01.729Z,23.97
2022-10-02T15:19:49.097Z,23.94
2022-10-02T15:22:25.952Z,23.86
2022-10-02T15:25:17.643Z,23.69
2022-10-02T15:27:47.114Z,23.55
2022-10-02T15:30:20.355Z,23.92
2022-10-02T15:33:10.751Z,23.45
2022-10-02T15:35:49.193Z,23.28
2022-10-02T15:38:31.481Z,23.04
2022-10-02T15:41:36.633Z,22.74
2022-10-02T15:44:25.383Z,22.57
2022-10-02T15:46:54.860Z,22.53
2022-10-02T15:50:04.081Z,22.38
2022-10-02T15:52:51.137Z,22.42
2022-10-02T15:55:37.531Z,22.42
2022-10-02T15:58:07.001Z,22.38
2022-10-02T16:01:00.756Z,22.33
2022-10-02T16:03:33.095Z,22.34
2022-10-02T16:06:32.565Z,22.42
2022-10-02T16:09:04.787Z,22.34
2022-10-02T16:11:57.635Z,22.27
2022-10-02T16:14:52.382Z,22.18
2022-10-02T16:17:43.481Z,22.32
2022-10-02T16:20:32.232Z,22.24
2022-10-02T16:23:01.591Z,22.14
2022-10-02T16:25:41.932Z,22.09
2022-10-02T16:28:39.396Z,22.26
2022-10-02T16:31:47.017Z,22.07
2022-10-02T16:34:42.082Z,21.95
2022-10-02T16:37:23.818Z,21.94
2022-10-02T16:39:58.925Z,21.82
2022-10-02T16:42:34.518Z,21.79
2022-10-02T16:45:20.852Z,21.68
2022-10-02T16:48:14.417Z,21.68
2022-10-02T16:50:43.827Z,21.71
2022-10-02T16:53:24.454Z,21.63
2022-10-02T16:56:15.195Z,21.56
2022-10-02T16:58:49.302Z,21.48
2022-10-02T17:01:30.614Z,21.41
2022-10-02T17:04:34.796Z,21.41
2022-10-02T17:07:18.116Z,21.49
2022-10-02T17:09:49.482Z,21.45
2022-10-02T17:12:28.345Z,21.40
2022-10-02T17:15:07.049Z,21.27
2022-10-02T17:17:42.450Z,21.34
2022-10-02T17:20:20.191Z,21.57
2022-10-02T17:23:05.107Z,21.61
2022-10-02T17:25:42.065Z,21.64
2022-10-02T17:28:08.521Z,21.64
2022-10-02T17:31:16.896Z,21.58
2022-10-02T17:33:53.124Z,21.72
2022-10-02T17:36:28.284Z,21.72
2022-10-02T17:39:16.564Z,21.73
2022-10-02T17:41:49.196Z,21.59
2022-10-02T17:44:27.623Z,21.66
2022-10-02T17:47:19.155Z,21.78
2022-10-02T17:49:54.375Z,21.65
2022-10-02T17:53:01.576Z,21.86
2022-10-02T17:56:05.313Z,21.67
2022-10-02T17:58:59.536Z,21.60
2022-10-02T18:02:02.455Z,21.49
2022-10-02T18:04:31.938Z,21.68
2022-10-02T18:06:58.350Z,21.44
2022-10-02T18:09:31.722Z,21.48
2022-10-02T18:12:29.516Z,21.51
2022-10-02T18:15:23.603Z,21.41
2022-10-02T18:18:18.364Z,21.43
2022-10-02T18:20:44.764Z,21.38
2022-10-02T18:23:36.024Z,21.43
2022-10-02T18:26:25.767Z,21.50
2022-10-02T18:29:10.634Z,21.32
2022-10-02T18:32:19.410Z,21.16
2022-10-02T18:34:56.931Z,21.38
2022-10-02T18:37:58.608Z,21.16
2022-10-02T18:40:35.189Z,21.06
2022-10-02T18:43:13.845Z,21.30
2022-10-02T18:46:06.768Z,21.05
2022-10-02T18:49:03.111Z,21.08
2022-10-02T18:51:52.447Z,21.07
2022-10-02T18:54:33.470Z,21.04
2022-10-02T18:57:09.321Z,20.95
2022-10-02T19:00:27.271Z,20.86
2022-10-02T19:02:53.665Z,20.81
2022-10-02T19:05:35.372Z,20.86
2022-10-02T19:08:04.725Z,20.76
2022-10-02T19:10:31.445Z,20.75
2022-10-02T19:13:18.093Z,20.71
2022-10-02T19:15:48.238Z,20.62
2022-10-02T19:18:26.141Z,20.77
2022-10-02T19:21:08.299Z,20.54
2022-10-02T19:23:46.926Z,20.39
2022-10-02T19:26:24.523Z,20.40
2022-10-02T19:28:59.866Z,20.35
2022-10-02T19:31:30.608Z,20.36
2022-10-02T19:34:03.895Z,20.22
2022-10-02T19:36:42.821Z,20.20
2022-10-02T19:39:22.781Z,20.16
2022-10-02T19:41:55.631Z,20.19
2022-10-02T19:44:38.347Z,20.06
2022-10-02T19:47:17.120Z,20.08
2022-10-02T19:49:47.716Z,20.03
2022-10-02T19:52:53.793Z,20.04
2022-10-02T19:55:27.837Z,19.99
2022-10-02T19:58:04.881Z,19.98
2022-10-02T20:00:35.352Z,19.91
2022-10-02T20:03:10.549Z,19.86
2022-10-02T20:05:37.989Z,19.84
2022-10-02T20:08:13.478Z,19.87
2022-10-02T20:11:04.938Z,19.82
2022-10-02T20:13:40.934Z,19.80
2022-10-02T20:16:42.114Z,19.70
2022-10-02T20:19:46.106Z,19.60
2022-10-02T20:22:36.412Z,19.58
2022-10-02T20:25:11.846Z,19.57
2022-10-02T20:27:50.438Z,19.49
2022-10-02T20:30:19.692Z,19.47
2022-10-02T20:33:09.640Z,19.48
2022-10-02T20:36:17.028Z,19.52
2022-10-02T20:38:47.701Z,19.42
2022-10-02T20:41:21.318Z,19.35
2022-10-02T20:43:51.308Z,19.37
2022-10-02T20:46:35.795Z,19.33
2022-10-02T20:49:24.066Z,19.34
2022-10-02T20:51:53.656Z,19.33
2022-10-02T20:54:39.751Z,19.25
2022-10-02T20:57:59.527Z,19.22
2022-10-02T21:00:28.872Z,19.20
2022-10-02T21:03:13.632Z,19.25
2022-10-02T21:06:05.179Z,19.26
2022-10-02T21:08:50.042Z,19.20
2022-10-02T21:11:20.874Z,19.18
2022-10-02T21:14:33.479Z,19.19
2022-10-02T21:17:24.065Z,19.14
2022-10-02T21:20:16.565Z,19.12
2022-10-02T21:22:54.764Z,19.14
2022-10-02T21:25:40.307Z,19.11
2022-10-02T21:28:13.473Z,19.12
2022-10-02T21:31:08.950Z,19.05
2022-10-02T21:33:50.176Z,19.03
2022-10-02T21:36:27.790Z,19.06
2022-10-02T21:39:12.528Z,19.05
2022-10-02T21:42:17.479Z,19.10
2022-10-02T21:45:04.662Z,18.99
2022-10-02T21:47:43.807Z,18.93
2022-10-02T21:50:53.399Z,18.93
2022-10-02T21:53:38.640Z,18.91
2022-10-02T21:56:13.840Z,18.86
2022-10-02T21:59:17.829Z,18.97
2022-10-02T22:02:19.403Z,18.91
2022-10-02T22:05:30.384Z,18.91
2022-10-02T22:08:08.657Z,18.92
2022-10-02T22:11:09.686Z,18.82
2022-10-02T22:13:43.679Z,18.81
2022-10-02T22:16:51.646Z,18.87
2022-10-02T22:19:37.809Z,18.85
2022-10-02T22:22:39.730Z,18.78
2022-10-02T22:25:35.763Z,18.72
2022-10-02T22:28:46.844Z,18.67
2022-10-02T22:32:20.812Z,18.70
2022-10-02T22:34:59.100Z,18.72
2022-10-02T22:37:45.816Z,18.74
2022-10-02T22:40:22.436Z,18.77
2022-10-02T22:43:09.991Z,18.74
2022-10-02T22:45:45.920Z,18.73
2022-10-02T22:48:17.142Z,18.73
2022-10-02T22:50:51.551Z,18.73
2022-10-02T22:53:26.705Z,18.75
2022-10-02T22:55:57.371Z,18.81
2022-10-02T22:58:41.788Z,18.83
2022-10-02T23:01:16.145Z,18.86
2022-10-02T23:03:58.111Z,18.87
2022-10-02T23:06:31.363Z,18.91
2022-10-02T23:09:17.383Z,18.90
2022-10-02T23:12:07.256Z,18.92
2022-10-02T23:15:11.323Z,19.00
2022-10-02T23:17:46.165Z,18.89
2022-10-02T23:20:42.820Z,18.86
2022-10-02T23:23:23.156Z,18.85
2022-10-02T23:26:01.492Z,18.79
2022-10-02T23:28:53.160Z,18.83
2022-10-02T23:31:30.358Z,18.97
2022-10-02T23:34:07.348Z,18.84
2022-10-02T23:37:01.840Z,18.86
2022-10-02T23:40:04.219Z,18.80
2022-10-02T23:42:45.066Z,18.74
2022-10-02T23:45:24.135Z,18.79
2022-10-02T23:47:58.858Z,18.76
2022-10-02T23:50:46.706Z,18.72
2022-10-02T23:53:40.307Z,18.82
2022-10-02T23:56:32.122Z,18.78
2022-10-02T23:59:01.275Z,18.82
